Lamont, Kansas
Current Conditions -  °F | °C
As of 6:53 AM on Saturday 20 Dec 2014 (Local Time) from KEMP Reporting Station
Broken Clouds Broken Clouds  
Wind Chill: 22°   Ceiling: 8500
Heat Index: 32°   Visibility: 7mi
Dew Point: 30°   Wind: 14mph
Humidity: 92%   Direction: 170°S
Pressure: 30.16"   Gusts: NA
Location:  38.11°N, 96.03°W
Report Text: KEMP 201253Z AUTO 17012KT 7SM BKN085 00/M01 A3016 RMK AO2 SLP227 T00001011
Loading
Personal Weather Stations






























Interactive Weather Map New forecast layout! Learn more

10-Day Weather Forecast

Advertisements
Track Severe Weather on mobile